Terminal Aerodrome Forecast
Issued by NWS

Home | Current Version | Previous Version | Graphics & Text | Print | Product List | Glossary On
Versions: 1 2 3 4 5 6 7 8 9 10 11 12 13 14 15 16
000
FTUS43 KICT 231300 AAA
TAFSLN
TAF AMD
KSLN 231328Z 2313/2412 03014KT P6SM VCTS SCT025CB
      TEMPO 2313/2315 VRB15G25KT -SHRA BKN025
     FM231500 03011KT P6SM BKN250
     FM240200 13005KT P6SM SCT250=

USA.gov is the U.S. government's official web portal to all federal, state and local government web resources and services.